Wintergreen, Virginia
Current Conditions -  °F | °C
As of 1:15 AM on Wednesday 26 Nov 2014 (Local Time) from KW13 Reporting Station
Overcast Overcast  
Wind Chill: 41°   Ceiling: 7000
Heat Index: 41°   Visibility: 10mi
Dew Point: 32°   Wind: 0mph
Humidity: 71%   Direction: NA
Pressure: 30.1"   Gusts: NA
Location:  37.8814°N, 78.882°W
Report Text: KW13 260615Z AUTO 00000KT 10SM SCT048 SCT060 OVC070 05/00 A3010 RMK AO1 T00480000
Loading
Personal Weather Stations






























Interactive Weather Map New forecast layout! Learn more

10-Day Weather Forecast

Advertisements
Track Severe Weather on mobile